createdAt,value
2023-05-23T00:01:45.613Z,10.93
2023-05-23T00:04:48.329Z,10.63
2023-05-23T00:07:50.199Z,9.93
2023-05-23T00:10:53.453Z,9.35
2023-05-23T00:13:57.603Z,10.38
2023-05-23T00:17:00.535Z,9.38
2023-05-23T00:20:03.027Z,8.63
2023-05-23T00:23:08.122Z,9.73
2023-05-23T00:26:11.503Z,9.52
2023-05-23T00:29:16.917Z,10.38
2023-05-23T00:32:19.920Z,9.88
2023-05-23T00:35:21.950Z,10.07
2023-05-23T00:38:23.734Z,10.15
2023-05-23T00:41:28.604Z,10.38
2023-05-23T00:44:30.781Z,9.85
2023-05-23T00:47:32.937Z,9.93
2023-05-23T00:50:36.239Z,9.57
2023-05-23T00:53:38.913Z,11.70
2023-05-23T00:56:44.001Z,10.77
2023-05-23T00:59:48.085Z,10.60
2023-05-23T01:02:53.649Z,12.43
2023-05-23T01:05:56.068Z,9.73
2023-05-23T01:09:01.958Z,10.75
2023-05-23T01:12:17.314Z,10.82
2023-05-23T01:15:21.779Z,10.85
2023-05-23T01:18:30.663Z,10.38
2023-05-23T01:21:34.255Z,10.35
2023-05-23T01:24:40.932Z,10.35
2023-05-23T01:27:53.207Z,9.30
2023-05-23T01:30:58.710Z,10.02
2023-05-23T01:34:03.543Z,11.40
2023-05-23T01:37:09.836Z,9.65
2023-05-23T01:40:12.744Z,10.15
2023-05-23T01:43:16.179Z,10.00
2023-05-23T01:46:22.702Z,10.15
2023-05-23T01:49:24.979Z,9.68
2023-05-23T01:52:26.944Z,10.05
2023-05-23T01:55:29.382Z,10.90
2023-05-23T01:58:32.760Z,10.93
2023-05-23T02:01:35.024Z,10.20
2023-05-23T02:04:37.680Z,10.38
2023-05-23T02:07:39.789Z,11.30
2023-05-23T02:10:41.667Z,10.73
2023-05-23T02:13:45.000Z,9.93
2023-05-23T02:16:52.798Z,10.02
2023-05-23T02:19:55.600Z,10.80
2023-05-23T02:22:57.474Z,9.77
2023-05-23T02:25:59.315Z,10.00
2023-05-23T02:29:03.092Z,9.98
2023-05-23T02:32:05.554Z,9.85
2023-05-23T02:35:08.478Z,10.52
2023-05-23T02:38:10.509Z,10.50
2023-05-23T02:41:12.733Z,9.95
2023-05-23T02:44:19.683Z,9.63
2023-05-23T02:47:21.570Z,9.45
2023-05-23T02:50:23.805Z,10.85
2023-05-23T02:53:28.119Z,12.80
2023-05-23T02:56:29.955Z,10.02
2023-05-23T02:59:34.082Z,10.93
2023-05-23T03:02:36.039Z,10.05
2023-05-23T03:05:38.891Z,11.65
2023-05-23T03:08:41.771Z,10.70
2023-05-23T03:11:43.861Z,10.68
2023-05-23T03:14:47.096Z,10.13
2023-05-23T03:17:49.073Z,10.90
2023-05-23T03:20:51.003Z,10.85
2023-05-23T03:23:53.501Z,10.43
2023-05-23T03:26:55.920Z,11.57
2023-05-23T03:29:59.237Z,10.50
2023-05-23T03:33:02.161Z,11.95
2023-05-23T03:36:04.415Z,10.75
2023-05-23T03:39:06.490Z,9.88
2023-05-23T03:42:08.539Z,11.32
2023-05-23T03:45:12.478Z,11.23
2023-05-23T03:48:14.431Z,10.10
2023-05-23T03:51:16.418Z,10.00
2023-05-23T03:54:18.455Z,10.48
2023-05-23T03:57:20.422Z,9.93
2023-05-23T04:00:23.854Z,10.75
2023-05-23T04:03:27.489Z,11.07
2023-05-23T04:06:31.413Z,10.68
2023-05-23T04:09:33.325Z,9.82
2023-05-23T04:12:35.680Z,10.73
2023-05-23T04:15:41.433Z,11.63
2023-05-23T04:18:47.576Z,10.80
2023-05-23T04:21:49.739Z,10.40
2023-05-23T04:24:51.631Z,11.48
2023-05-23T04:27:57.525Z,12.52
2023-05-23T04:31:02.863Z,14.30
2023-05-23T04:34:04.858Z,10.77
2023-05-23T04:37:07.299Z,11.85
2023-05-23T04:40:09.892Z,11.05
2023-05-23T04:43:14.436Z,10.48
2023-05-23T04:46:22.226Z,12.02
2023-05-23T04:49:24.142Z,11.57
2023-05-23T04:52:27.674Z,11.65
2023-05-23T04:55:29.811Z,10.85
2023-05-23T04:58:32.256Z,12.32
2023-05-23T05:01:35.591Z,12.30
2023-05-23T05:04:38.252Z,11.93
2023-05-23T05:07:40.532Z,12.00
2023-05-23T05:10:43.285Z,12.98
2023-05-23T05:13:45.149Z,11.73
2023-05-23T05:16:50.320Z,11.90
2023-05-23T05:19:53.124Z,11.48
2023-05-23T05:22:58.397Z,10.23
2023-05-23T05:26:01.119Z,10.82
2023-05-23T05:29:03.098Z,10.70
2023-05-23T05:32:09.172Z,10.73
2023-05-23T05:35:14.074Z,11.90
2023-05-23T05:38:16.150Z,13.38
2023-05-23T05:41:18.009Z,12.25
2023-05-23T05:44:20.064Z,12.25
2023-05-23T05:47:23.267Z,12.52
2023-05-23T05:50:26.101Z,12.20
2023-05-23T05:53:27.933Z,12.50
2023-05-23T05:56:29.922Z,9.93
2023-05-23T05:59:32.606Z,11.10
2023-05-23T06:02:36.795Z,13.20
2023-05-23T06:05:39.774Z,14.27
2023-05-23T06:08:42.817Z,13.00
2023-05-23T06:11:44.696Z,13.93
2023-05-23T06:14:46.521Z,11.98
2023-05-23T06:17:51.541Z,11.63
2023-05-23T06:20:53.442Z,12.00
2023-05-23T06:23:56.028Z,12.38
2023-05-23T06:26:57.824Z,13.32
2023-05-23T06:29:59.657Z,12.93
2023-05-23T06:33:03.475Z,9.95
2023-05-23T06:36:05.561Z,9.52
2023-05-23T06:39:10.052Z,10.30
2023-05-23T06:42:11.967Z,10.98
2023-05-23T06:45:16.372Z,10.60
2023-05-23T06:48:19.937Z,10.57
2023-05-23T06:51:21.957Z,8.90
2023-05-23T06:54:23.900Z,8.95
2023-05-23T06:57:25.898Z,10.40
2023-05-23T07:00:31.634Z,10.57
2023-05-23T07:03:38.530Z,11.38
2023-05-23T07:06:40.615Z,11.88
2023-05-23T07:09:42.990Z,12.35
2023-05-23T07:12:44.869Z,11.20
2023-05-23T07:15:46.708Z,12.00
2023-05-23T07:18:49.915Z,13.13
2023-05-23T07:21:51.819Z,10.95
2023-05-23T07:24:53.891Z,9.90
2023-05-23T07:27:56.089Z,11.98
2023-05-23T07:30:59.104Z,12.38
2023-05-23T07:34:02.769Z,11.88
2023-05-23T07:37:04.976Z,11.07
2023-05-23T07:40:09.570Z,11.25
2023-05-23T07:43:11.428Z,11.00
2023-05-23T07:46:16.805Z,12.80
2023-05-23T07:49:20.137Z,13.02
2023-05-23T07:52:22.800Z,12.80
2023-05-23T07:55:24.668Z,12.23
2023-05-23T07:58:26.658Z,13.82
2023-05-23T08:01:28.559Z,12.90
2023-05-23T08:04:34.633Z,14.60
2023-05-23T08:07:36.563Z,13.05
2023-05-23T08:10:40.217Z,12.70
2023-05-23T08:13:42.774Z,13.38
2023-05-23T08:16:44.720Z,13.85
2023-05-23T08:19:48.132Z,13.05
2023-05-23T08:22:49.950Z,14.80
2023-05-23T08:25:52.746Z,16.20
2023-05-23T08:28:54.699Z,11.73
2023-05-23T08:31:56.720Z,16.05
2023-05-23T08:35:00.106Z,13.73
2023-05-23T08:38:02.272Z,10.98
2023-05-23T08:41:12.959Z,14.00
2023-05-23T08:44:15.958Z,12.82
2023-05-23T08:47:19.951Z,11.68
2023-05-23T08:50:25.241Z,11.88
2023-05-23T08:53:29.146Z,13.52
2023-05-23T08:56:31.717Z,13.88
2023-05-23T08:59:35.355Z,13.23
2023-05-23T09:02:38.134Z,14.27
2023-05-23T09:05:42.385Z,13.63
2023-05-23T09:08:46.262Z,12.02
2023-05-23T09:11:48.700Z,14.43
2023-05-23T09:14:50.886Z,12.88
2023-05-23T09:17:53.876Z,14.65
2023-05-23T09:20:57.715Z,12.38
2023-05-23T09:24:00.973Z,13.35
2023-05-23T09:27:03.501Z,11.73
2023-05-23T09:30:06.886Z,13.75
2023-05-23T09:33:09.652Z,15.15
2023-05-23T09:36:12.974Z,14.57
2023-05-23T09:39:14.965Z,14.50
2023-05-23T09:42:22.202Z,14.20
2023-05-23T09:45:30.302Z,14.82
2023-05-23T09:48:33.545Z,14.45
2023-05-23T09:51:37.672Z,14.23
2023-05-23T09:54:39.778Z,14.00
2023-05-23T09:57:44.205Z,15.45
2023-05-23T10:00:48.821Z,14.90
2023-05-23T10:03:54.753Z,14.05
2023-05-23T10:07:05.374Z,14.23
2023-05-23T10:10:10.659Z,13.73
2023-05-23T10:13:13.568Z,15.32
2023-05-23T10:16:21.509Z,13.20
2023-05-23T10:19:28.393Z,13.52
2023-05-23T10:22:33.039Z,13.63
2023-05-23T10:25:37.249Z,14.25
2023-05-23T10:28:40.905Z,13.68
2023-05-23T10:31:44.260Z,13.48
2023-05-23T10:34:56.575Z,12.07
2023-05-23T10:38:17.714Z,12.27
2023-05-23T10:41:27.081Z,10.85
2023-05-23T10:44:31.219Z,11.15
2023-05-23T10:47:34.322Z,13.23
2023-05-23T10:50:41.731Z,13.57
2023-05-23T10:53:47.008Z,12.23
2023-05-23T11:00:12.178Z,12.55
2023-05-23T11:03:14.281Z,12.85
2023-05-23T11:06:30.085Z,12.70
2023-05-23T11:09:33.363Z,14.18
2023-05-23T11:12:37.862Z,12.48
2023-05-23T11:15:43.674Z,12.95
2023-05-23T11:18:46.617Z,13.50
2023-05-23T11:21:50.869Z,15.02
2023-05-23T11:24:55.220Z,14.30
2023-05-23T11:27:57.225Z,15.00
2023-05-23T11:30:59.332Z,14.10
2023-05-23T11:34:01.720Z,13.57
2023-05-23T11:37:03.981Z,13.57
2023-05-23T11:40:32.850Z,15.10
2023-05-23T11:43:34.827Z,12.45
2023-05-23T11:46:37.306Z,11.73
2023-05-23T11:49:40.459Z,12.80
2023-05-23T11:52:42.628Z,10.90
2023-05-23T11:55:54.465Z,12.23
2023-05-23T11:58:57.593Z,12.80
2023-05-23T12:02:02.762Z,11.65
2023-05-23T12:05:08.334Z,11.68
2023-05-23T12:08:12.274Z,11.15
2023-05-23T12:11:15.972Z,10.05
2023-05-23T12:14:18.546Z,11.52
2023-05-23T12:17:20.599Z,11.75
2023-05-23T12:20:22.961Z,12.18
2023-05-23T12:23:25.519Z,11.82
2023-05-23T12:26:29.531Z,12.35
2023-05-23T12:29:34.833Z,12.10
2023-05-23T12:32:40.674Z,12.02
2023-05-23T12:35:45.752Z,10.95
2023-05-23T12:38:47.640Z,11.43
2023-05-23T12:41:51.462Z,11.52
2023-05-23T12:44:54.157Z,11.02
2023-05-23T12:47:56.214Z,10.98
2023-05-23T12:50:58.201Z,11.65
2023-05-23T12:54:00.231Z,11.80
2023-05-23T12:57:03.719Z,13.88
2023-05-23T13:00:07.168Z,13.15
2023-05-23T13:03:09.706Z,12.45
2023-05-23T13:06:12.075Z,12.43
2023-05-23T13:09:13.936Z,15.55
2023-05-23T13:12:17.570Z,12.43
2023-05-23T13:15:19.546Z,11.13
2023-05-23T13:18:21.450Z,11.68
2023-05-23T13:21:24.077Z,12.27
2023-05-23T13:24:26.091Z,12.57
2023-05-23T13:27:29.603Z,11.00
2023-05-23T13:30:31.765Z,11.82
2023-05-23T13:33:33.735Z,11.65
2023-05-23T13:36:36.194Z,12.02
2023-05-23T13:39:38.063Z,12.20
2023-05-23T13:42:41.396Z,13.15
2023-05-23T13:45:43.274Z,13.82
2023-05-23T13:48:45.100Z,11.85
2023-05-23T13:51:48.286Z,12.88
2023-05-23T13:54:50.284Z,11.70
2023-05-23T13:57:54.382Z,10.73
2023-05-23T14:00:56.246Z,11.85
2023-05-23T14:03:58.930Z,10.60
2023-05-23T14:07:00.787Z,11.20
2023-05-23T14:10:03.081Z,11.98
2023-05-23T14:13:06.387Z,11.98
2023-05-23T14:16:09.049Z,10.20
2023-05-23T14:19:11.007Z,10.95
2023-05-23T14:22:13.920Z,9.65
2023-05-23T14:25:16.054Z,11.63
2023-05-23T14:28:19.394Z,10.55
2023-05-23T14:31:22.366Z,11.35
2023-05-23T14:34:24.197Z,10.18
2023-05-23T14:37:26.879Z,11.82
2023-05-23T14:40:28.731Z,10.35
2023-05-23T14:43:32.021Z,10.90
2023-05-23T14:46:34.835Z,11.23
2023-05-23T14:49:36.895Z,10.43
2023-05-23T14:52:38.811Z,11.98
2023-05-23T14:55:41.386Z,11.40
2023-05-23T14:58:46.004Z,11.50
2023-05-23T15:01:48.107Z,10.88
2023-05-23T15:04:50.788Z,10.82
2023-05-23T15:07:52.659Z,10.70
2023-05-23T15:10:54.555Z,12.10
2023-05-23T15:13:57.790Z,11.82
2023-05-23T15:17:07.766Z,11.15
2023-05-23T15:20:10.841Z,11.02
2023-05-23T15:23:12.773Z,10.77
2023-05-23T15:26:14.743Z,12.02
2023-05-23T15:29:18.392Z,12.38
2023-05-23T15:32:20.434Z,12.68
2023-05-23T15:35:22.926Z,11.75
2023-05-23T15:38:24.800Z,12.45
2023-05-23T15:41:26.732Z,11.00
2023-05-23T15:44:30.170Z,11.10
2023-05-23T15:47:32.807Z,11.18
2023-05-23T15:50:34.750Z,10.52
2023-05-23T15:53:47.904Z,10.23
2023-05-23T15:56:58.523Z,10.18
2023-05-23T16:00:02.220Z,11.00
2023-05-23T16:03:04.299Z,9.77
2023-05-23T16:06:06.748Z,11.40
2023-05-23T16:09:08.949Z,10.05
2023-05-23T16:12:10.856Z,10.63
2023-05-23T16:15:14.318Z,8.95
2023-05-23T16:18:16.238Z,16.20
2023-05-23T16:21:20.770Z,11.18
2023-05-23T16:24:24.422Z,10.40
2023-05-23T16:27:26.306Z,10.40
2023-05-23T16:30:29.563Z,13.38
2023-05-23T16:33:31.783Z,10.10
2023-05-23T16:36:33.711Z,8.85
2023-05-23T16:39:35.606Z,9.45
2023-05-23T16:42:37.495Z,11.00
2023-05-23T16:45:42.118Z,11.10
2023-05-23T16:48:44.620Z,12.93
2023-05-23T16:51:48.562Z,10.98
2023-05-23T16:54:50.809Z,11.93
2023-05-23T16:57:53.305Z,9.15
2023-05-23T17:00:57.017Z,10.00
2023-05-23T17:03:59.028Z,11.50
2023-05-23T17:07:01.711Z,9.57
2023-05-23T17:10:03.691Z,13.23
2023-05-23T17:13:06.469Z,12.13
2023-05-23T17:16:09.897Z,11.43
2023-05-23T17:19:11.797Z,11.68
2023-05-23T17:22:14.544Z,9.63
2023-05-23T17:25:16.469Z,11.88
2023-05-23T17:28:18.454Z,10.75
2023-05-23T17:31:21.787Z,12.00
2023-05-23T17:34:23.662Z,11.20
2023-05-23T17:37:26.557Z,12.48
2023-05-23T17:40:28.509Z,14.70
2023-05-23T17:43:30.628Z,10.95
2023-05-23T17:46:34.295Z,12.63
2023-05-23T17:49:37.926Z,12.40
2023-05-23T17:52:40.579Z,12.93
2023-05-23T17:55:42.416Z,14.75
2023-05-23T17:58:44.585Z,12.10
2023-05-23T18:01:48.028Z,12.43
2023-05-23T18:04:50.473Z,12.18
2023-05-23T18:07:52.716Z,12.68
2023-05-23T18:10:54.531Z,14.25
2023-05-23T18:13:56.505Z,12.45
2023-05-23T18:16:59.855Z,10.32
2023-05-23T18:20:02.261Z,10.32
2023-05-23T18:23:04.738Z,11.75
2023-05-23T18:26:06.653Z,10.10
2023-05-23T18:29:08.600Z,10.70
2023-05-23T18:32:14.547Z,9.77
2023-05-23T18:35:16.540Z,10.93
2023-05-23T18:38:19.309Z,10.93
2023-05-23T18:41:22.381Z,13.05
2023-05-23T18:44:24.193Z,12.27
2023-05-23T18:47:27.722Z,14.38
2023-05-23T18:50:29.860Z,10.52
2023-05-23T18:53:32.578Z,11.10
2023-05-23T18:56:34.571Z,12.93
2023-05-23T18:59:36.837Z,10.73
2023-05-23T19:02:44.285Z,10.52
2023-05-23T19:05:46.457Z,11.90
2023-05-23T19:08:49.224Z,12.57
2023-05-23T19:11:51.055Z,13.70
2023-05-23T19:14:52.980Z,13.85
2023-05-23T19:17:56.270Z,13.30
2023-05-23T19:20:58.248Z,12.18
2023-05-23T19:24:00.225Z,12.40
2023-05-23T19:27:02.452Z,12.70
2023-05-23T19:30:04.991Z,13.02
2023-05-23T19:33:08.701Z,13.52
2023-05-23T19:36:10.609Z,13.23
2023-05-23T19:39:13.074Z,12.48
2023-05-23T19:42:14.980Z,14.18
2023-05-23T19:45:17.466Z,13.07
2023-05-23T19:48:20.752Z,13.65
2023-05-23T19:51:23.213Z,13.32
2023-05-23T19:54:25.217Z,13.20
2023-05-23T19:57:27.050Z,13.27
2023-05-23T20:00:29.025Z,12.57
2023-05-23T20:03:32.265Z,10.15
2023-05-23T20:06:35.243Z,10.52
2023-05-23T20:09:37.656Z,10.68
2023-05-23T20:12:40.345Z,9.52
2023-05-23T20:15:42.612Z,10.40
2023-05-23T20:18:45.874Z,11.77
2023-05-23T20:21:47.764Z,9.57
2023-05-23T20:24:50.009Z,11.63
2023-05-23T20:27:51.905Z,10.85
2023-05-23T20:30:53.806Z,12.68
2023-05-23T20:33:57.106Z,11.98
2023-05-23T20:36:59.027Z,12.35
2023-05-23T20:40:00.852Z,13.13
2023-05-23T20:43:05.166Z,13.63
2023-05-23T20:46:09.344Z,13.13
2023-05-23T20:49:14.324Z,12.93
2023-05-23T20:52:16.401Z,14.02
2023-05-23T20:55:18.967Z,12.45
2023-05-23T20:58:21.733Z,12.98
2023-05-23T21:01:26.419Z,13.43
2023-05-23T21:04:29.736Z,13.43
2023-05-23T21:07:32.306Z,14.95
2023-05-23T21:10:34.378Z,13.68
2023-05-23T21:13:39.786Z,13.68
2023-05-23T21:16:41.984Z,15.13
2023-05-23T21:19:45.281Z,14.50
2023-05-23T21:22:48.193Z,15.20
2023-05-23T21:25:50.072Z,14.27
2023-05-23T21:28:51.930Z,13.85
2023-05-23T21:31:55.086Z,14.65
2023-05-23T21:34:58.602Z,15.55
2023-05-23T21:38:00.564Z,14.30
2023-05-23T21:41:02.363Z,13.88
2023-05-23T21:44:04.305Z,15.00
2023-05-23T21:47:06.334Z,13.80
2023-05-23T21:50:11.381Z,14.68
2023-05-23T21:53:13.313Z,14.80
2023-05-23T21:56:15.164Z,14.48
2023-05-23T21:59:17.860Z,14.30
2023-05-23T22:02:19.719Z,14.45
2023-05-23T22:05:23.249Z,14.73
2023-05-23T22:08:25.019Z,13.20
2023-05-23T22:11:33.960Z,15.07
2023-05-23T22:14:36.211Z,13.80
2023-05-23T22:17:38.232Z,14.43
2023-05-23T22:20:42.336Z,15.18
2023-05-23T22:23:44.365Z,15.02
2023-05-23T22:26:46.285Z,16.30
2023-05-23T22:29:48.821Z,16.10
2023-05-23T22:32:51.002Z,15.30
2023-05-23T22:35:54.349Z,15.50
2023-05-23T22:38:56.582Z,16.33
2023-05-23T22:41:58.768Z,15.35
2023-05-23T22:45:00.755Z,16.20
2023-05-23T22:48:02.732Z,15.15
2023-05-23T22:51:08.033Z,16.38
2023-05-23T22:54:10.043Z,14.63
2023-05-23T22:57:12.638Z,15.95
2023-05-23T23:00:15.028Z,14.90
2023-05-23T23:03:17.811Z,15.35
2023-05-23T23:06:21.137Z,13.65
2023-05-23T23:09:23.143Z,15.40
2023-05-23T23:12:25.614Z,15.75
2023-05-23T23:15:30.234Z,16.75
2023-05-23T23:18:32.684Z,15.55
2023-05-23T23:21:36.216Z,15.45
2023-05-23T23:24:38.160Z,15.32
2023-05-23T23:27:40.597Z,16.38
2023-05-23T23:30:43.916Z,15.57
2023-05-23T23:33:46.829Z,17.05
2023-05-23T23:36:50.137Z,13.25
2023-05-23T23:39:52.673Z,12.15
2023-05-23T23:42:54.592Z,11.95
2023-05-23T23:45:56.403Z,13.48
2023-05-23T23:48:58.560Z,12.70
2023-05-23T23:52:01.864Z,11.23
2023-05-23T23:55:05.295Z,11.40
2023-05-23T23:58:07.183Z,13.18
